sensor_id;sensor_type;location;lat;lon;timestamp;P1;durP1;ratioP1;P2;durP2;ratioP2
78885;SDS011;68269;52.514;5.722;2024-02-21T00:02:10;4.38;;;1.00;;
78885;SDS011;68269;52.514;5.722;2024-02-21T00:04:43;4.10;;;0.98;;
78885;SDS011;68269;52.514;5.722;2024-02-21T00:07:12;4.72;;;0.50;;
78885;SDS011;68269;52.514;5.722;2024-02-21T00:09:41;4.72;;;1.00;;
78885;SDS011;68269;52.514;5.722;2024-02-21T00:12:13;4.20;;;0.88;;
78885;SDS011;68269;52.514;5.722;2024-02-21T00:14:43;4.35;;;0.77;;
78885;SDS011;68269;52.514;5.722;2024-02-21T00:17:12;7.07;;;0.82;;
78885;SDS011;68269;52.514;5.722;2024-02-21T00:19:41;7.15;;;1.05;;
78885;SDS011;68269;52.514;5.722;2024-02-21T00:22:10;4.75;;;1.05;;
78885;SDS011;68269;52.514;5.722;2024-02-21T00:24:40;7.70;;;1.08;;
78885;SDS011;68269;52.514;5.722;2024-02-21T00:27:10;8.65;;;1.30;;
78885;SDS011;68269;52.514;5.722;2024-02-21T00:29:42;8.40;;;1.27;;
78885;SDS011;68269;52.514;5.722;2024-02-21T00:32:11;6.80;;;1.20;;
78885;SDS011;68269;52.514;5.722;2024-02-21T00:34:40;6.55;;;0.68;;
78885;SDS011;68269;52.514;5.722;2024-02-21T00:37:09;5.82;;;0.93;;
78885;SDS011;68269;52.514;5.722;2024-02-21T00:39:39;7.28;;;1.05;;
78885;SDS011;68269;52.514;5.722;2024-02-21T00:42:08;5.85;;;0.85;;
78885;SDS011;68269;52.514;5.722;2024-02-21T00:44:37;7.65;;;1.15;;
78885;SDS011;68269;52.514;5.722;2024-02-21T00:47:09;4.28;;;0.82;;
78885;SDS011;68269;52.514;5.722;2024-02-21T00:49:38;9.77;;;2.65;;
78885;SDS011;68269;52.514;5.722;2024-02-21T00:52:08;6.82;;;0.95;;
78885;SDS011;68269;52.514;5.722;2024-02-21T00:54:37;7.90;;;1.35;;
78885;SDS011;68269;52.514;5.722;2024-02-21T00:57:07;8.50;;;1.35;;
78885;SDS011;68269;52.514;5.722;2024-02-21T00:59:37;8.77;;;1.45;;
78885;SDS011;68269;52.514;5.722;2024-02-21T01:02:10;4.82;;;0.73;;
78885;SDS011;68269;52.514;5.722;2024-02-21T01:04:39;7.05;;;1.35;;
78885;SDS011;68269;52.514;5.722;2024-02-21T01:07:08;10.25;;;1.45;;
78885;SDS011;68269;52.514;5.722;2024-02-21T01:09:37;8.55;;;1.50;;
78885;SDS011;68269;52.514;5.722;2024-02-21T01:12:07;5.75;;;1.05;;
78885;SDS011;68269;52.514;5.722;2024-02-21T01:14:36;5.65;;;1.20;;
78885;SDS011;68269;52.514;5.722;2024-02-21T01:17:05;7.45;;;1.10;;
78885;SDS011;68269;52.514;5.722;2024-02-21T01:19:37;6.97;;;1.85;;
78885;SDS011;68269;52.514;5.722;2024-02-21T01:22:07;3.03;;;0.93;;
78885;SDS011;68269;52.514;5.722;2024-02-21T01:24:36;7.95;;;0.95;;
78885;SDS011;68269;52.514;5.722;2024-02-21T01:27:05;6.68;;;1.05;;
78885;SDS011;68269;52.514;5.722;2024-02-21T01:29:35;9.98;;;1.50;;
78885;SDS011;68269;52.514;5.722;2024-02-21T01:32:04;11.98;;;1.73;;
78885;SDS011;68269;52.514;5.722;2024-02-21T01:34:37;11.00;;;1.10;;
78885;SDS011;68269;52.514;5.722;2024-02-21T01:37:06;14.57;;;2.03;;
78885;SDS011;68269;52.514;5.722;2024-02-21T01:39:35;10.90;;;1.33;;
78885;SDS011;68269;52.514;5.722;2024-02-21T01:42:04;7.85;;;1.25;;
78885;SDS011;68269;52.514;5.722;2024-02-21T01:44:35;8.98;;;1.27;;
78885;SDS011;68269;52.514;5.722;2024-02-21T01:47:04;5.82;;;1.48;;
78885;SDS011;68269;52.514;5.722;2024-02-21T01:49:37;8.57;;;1.38;;
78885;SDS011;68269;52.514;5.722;2024-02-21T01:52:06;17.40;;;2.00;;
78885;SDS011;68269;52.514;5.722;2024-02-21T01:54:36;5.22;;;0.90;;
78885;SDS011;68269;52.514;5.722;2024-02-21T01:57:06;3.60;;;0.75;;
78885;SDS011;68269;52.514;5.722;2024-02-21T01:59:35;8.05;;;1.27;;
78885;SDS011;68269;52.514;5.722;2024-02-21T02:02:04;12.55;;;1.52;;
78885;SDS011;68269;52.514;5.722;2024-02-21T02:04:37;7.90;;;1.20;;
78885;SDS011;68269;52.514;5.722;2024-02-21T02:07:08;5.53;;;0.73;;
78885;SDS011;68269;52.514;5.722;2024-02-21T02:09:37;11.60;;;0.85;;
78885;SDS011;68269;52.514;5.722;2024-02-21T02:12:06;10.57;;;1.08;;
78885;SDS011;68269;52.514;5.722;2024-02-21T02:14:37;5.93;;;0.82;;
78885;SDS011;68269;52.514;5.722;2024-02-21T02:17:06;10.27;;;0.90;;
78885;SDS011;68269;52.514;5.722;2024-02-21T02:19:38;12.45;;;1.83;;
78885;SDS011;68269;52.514;5.722;2024-02-21T02:22:08;12.18;;;1.52;;
78885;SDS011;68269;52.514;5.722;2024-02-21T02:24:45;7.05;;;1.08;;
78885;SDS011;68269;52.514;5.722;2024-02-21T02:27:15;11.65;;;1.52;;
78885;SDS011;68269;52.514;5.722;2024-02-21T02:29:44;6.63;;;1.25;;
78885;SDS011;68269;52.514;5.722;2024-02-21T02:32:13;10.77;;;1.23;;
78885;SDS011;68269;52.514;5.722;2024-02-21T02:34:42;6.30;;;0.90;;
78885;SDS011;68269;52.514;5.722;2024-02-21T02:37:12;10.98;;;1.05;;
78885;SDS011;68269;52.514;5.722;2024-02-21T02:39:41;6.68;;;1.05;;
78885;SDS011;68269;52.514;5.722;2024-02-21T02:42:13;12.18;;;1.67;;
78885;SDS011;68269;52.514;5.722;2024-02-21T02:44:42;8.20;;;1.13;;
78885;SDS011;68269;52.514;5.722;2024-02-21T02:47:12;8.27;;;0.98;;
78885;SDS011;68269;52.514;5.722;2024-02-21T02:49:41;8.25;;;1.33;;
78885;SDS011;68269;52.514;5.722;2024-02-21T02:52:11;4.50;;;0.95;;
78885;SDS011;68269;52.514;5.722;2024-02-21T02:54:40;5.82;;;1.10;;
78885;SDS011;68269;52.514;5.722;2024-02-21T02:57:09;6.22;;;0.93;;
78885;SDS011;68269;52.514;5.722;2024-02-21T02:59:41;8.68;;;1.20;;
78885;SDS011;68269;52.514;5.722;2024-02-21T03:02:10;7.80;;;1.63;;
78885;SDS011;68269;52.514;5.722;2024-02-21T03:04:39;12.73;;;1.40;;
78885;SDS011;68269;52.514;5.722;2024-02-21T03:07:09;9.10;;;1.30;;
78885;SDS011;68269;52.514;5.722;2024-02-21T03:09:39;8.90;;;1.48;;
78885;SDS011;68269;52.514;5.722;2024-02-21T03:12:09;8.88;;;1.13;;
78885;SDS011;68269;52.514;5.722;2024-02-21T03:14:40;8.80;;;1.00;;
78885;SDS011;68269;52.514;5.722;2024-02-21T03:17:10;8.20;;;1.70;;
78885;SDS011;68269;52.514;5.722;2024-02-21T03:19:39;17.50;;;1.23;;
78885;SDS011;68269;52.514;5.722;2024-02-21T03:22:08;13.40;;;2.08;;
78885;SDS011;68269;52.514;5.722;2024-02-21T03:24:37;9.07;;;1.10;;
78885;SDS011;68269;52.514;5.722;2024-02-21T03:27:07;8.23;;;1.23;;
78885;SDS011;68269;52.514;5.722;2024-02-21T03:29:36;4.97;;;1.08;;
78885;SDS011;68269;52.514;5.722;2024-02-21T03:32:08;11.38;;;1.40;;
78885;SDS011;68269;52.514;5.722;2024-02-21T03:34:37;6.35;;;1.17;;
78885;SDS011;68269;52.514;5.722;2024-02-21T03:37:06;9.30;;;1.15;;
78885;SDS011;68269;52.514;5.722;2024-02-21T03:39:36;8.82;;;1.25;;
78885;SDS011;68269;52.514;5.722;2024-02-21T03:42:05;8.80;;;1.27;;
78885;SDS011;68269;52.514;5.722;2024-02-21T03:44:34;9.10;;;1.27;;
78885;SDS011;68269;52.514;5.722;2024-02-21T03:47:05;5.35;;;0.95;;
78885;SDS011;68269;52.514;5.722;2024-02-21T03:49:37;8.98;;;1.50;;
78885;SDS011;68269;52.514;5.722;2024-02-21T03:52:06;5.93;;;1.33;;
78885;SDS011;68269;52.514;5.722;2024-02-21T03:54:36;4.22;;;1.02;;
78885;SDS011;68269;52.514;5.722;2024-02-21T03:57:05;7.55;;;1.33;;
78885;SDS011;68269;52.514;5.722;2024-02-21T03:59:35;8.55;;;1.35;;
78885;SDS011;68269;52.514;5.722;2024-02-21T04:02:08;5.55;;;0.85;;
78885;SDS011;68269;52.514;5.722;2024-02-21T04:04:37;6.97;;;0.98;;
78885;SDS011;68269;52.514;5.722;2024-02-21T04:07:06;14.45;;;2.67;;
78885;SDS011;68269;52.514;5.722;2024-02-21T04:09:36;8.63;;;1.08;;
78885;SDS011;68269;52.514;5.722;2024-02-21T04:12:07;14.35;;;1.73;;
78885;SDS011;68269;52.514;5.722;2024-02-21T04:14:37;3.83;;;1.02;;
78885;SDS011;68269;52.514;5.722;2024-02-21T04:17:08;9.75;;;1.02;;
78885;SDS011;68269;52.514;5.722;2024-02-21T04:19:38;12.10;;;1.80;;
78885;SDS011;68269;52.514;5.722;2024-02-21T04:22:07;10.90;;;1.42;;
78885;SDS011;68269;52.514;5.722;2024-02-21T04:24:36;10.98;;;1.35;;
78885;SDS011;68269;52.514;5.722;2024-02-21T04:27:05;19.10;;;2.10;;
78885;SDS011;68269;52.514;5.722;2024-02-21T04:29:35;7.82;;;1.30;;
78885;SDS011;68269;52.514;5.722;2024-02-21T04:32:04;7.43;;;1.83;;
78885;SDS011;68269;52.514;5.722;2024-02-21T04:34:38;9.05;;;1.77;;
78885;SDS011;68269;52.514;5.722;2024-02-21T04:37:09;6.10;;;1.42;;
78885;SDS011;68269;52.514;5.722;2024-02-21T04:39:38;9.73;;;1.42;;
78885;SDS011;68269;52.514;5.722;2024-02-21T04:42:08;8.02;;;1.23;;
78885;SDS011;68269;52.514;5.722;2024-02-21T04:44:34;11.07;;;1.95;;
78885;SDS011;68269;52.514;5.722;2024-02-21T04:47:04;6.55;;;1.40;;
78885;SDS011;68269;52.514;5.722;2024-02-21T04:49:33;7.57;;;1.83;;
78885;SDS011;68269;52.514;5.722;2024-02-21T04:52:06;9.07;;;2.40;;
78885;SDS011;68269;52.514;5.722;2024-02-21T04:54:35;9.65;;;1.42;;
78885;SDS011;68269;52.514;5.722;2024-02-21T04:57:04;11.05;;;1.98;;
78885;SDS011;68269;52.514;5.722;2024-02-21T04:59:36;7.90;;;1.88;;
78885;SDS011;68269;52.514;5.722;2024-02-21T05:02:05;8.90;;;1.63;;
78885;SDS011;68269;52.514;5.722;2024-02-21T05:04:34;6.05;;;0.93;;
78885;SDS011;68269;52.514;5.722;2024-02-21T05:07:06;8.13;;;1.45;;
78885;SDS011;68269;52.514;5.722;2024-02-21T05:09:37;9.45;;;1.65;;
78885;SDS011;68269;52.514;5.722;2024-02-21T05:12:06;8.30;;;1.88;;
78885;SDS011;68269;52.514;5.722;2024-02-21T05:14:36;6.85;;;1.13;;
78885;SDS011;68269;52.514;5.722;2024-02-21T05:17:05;14.05;;;1.92;;
78885;SDS011;68269;52.514;5.722;2024-02-21T05:19:35;8.75;;;1.45;;
78885;SDS011;68269;52.514;5.722;2024-02-21T05:22:06;11.45;;;1.58;;
78885;SDS011;68269;52.514;5.722;2024-02-21T05:24:36;7.63;;;1.42;;
78885;SDS011;68269;52.514;5.722;2024-02-21T05:27:07;5.20;;;1.45;;
78885;SDS011;68269;52.514;5.722;2024-02-21T05:29:36;9.32;;;1.88;;
78885;SDS011;68269;52.514;5.722;2024-02-21T05:32:06;7.50;;;1.38;;
78885;SDS011;68269;52.514;5.722;2024-02-21T05:34:35;10.82;;;2.58;;
78885;SDS011;68269;52.514;5.722;2024-02-21T05:37:07;8.10;;;1.88;;
78885;SDS011;68269;52.514;5.722;2024-02-21T05:39:36;10.57;;;1.73;;
78885;SDS011;68269;52.514;5.722;2024-02-21T05:42:06;9.82;;;2.40;;
78885;SDS011;68269;52.514;5.722;2024-02-21T05:44:35;7.57;;;2.30;;
78885;SDS011;68269;52.514;5.722;2024-02-21T05:47:04;10.75;;;2.03;;
78885;SDS011;68269;52.514;5.722;2024-02-21T05:49:35;12.10;;;2.78;;
78885;SDS011;68269;52.514;5.722;2024-02-21T05:52:07;7.93;;;2.25;;
78885;SDS011;68269;52.514;5.722;2024-02-21T05:54:37;12.70;;;2.28;;
78885;SDS011;68269;52.514;5.722;2024-02-21T05:57:07;9.82;;;2.22;;
78885;SDS011;68269;52.514;5.722;2024-02-21T05:59:37;11.88;;;2.75;;
78885;SDS011;68269;52.514;5.722;2024-02-21T06:02:09;15.18;;;2.67;;
78885;SDS011;68269;52.514;5.722;2024-02-21T06:04:38;12.88;;;2.42;;
78885;SDS011;68269;52.514;5.722;2024-02-21T06:07:11;14.05;;;2.55;;
78885;SDS011;68269;52.514;5.722;2024-02-21T06:09:40;10.90;;;2.53;;
78885;SDS011;68269;52.514;5.722;2024-02-21T06:12:10;18.23;;;2.80;;
78885;SDS011;68269;52.514;5.722;2024-02-21T06:14:39;7.47;;;2.00;;
78885;SDS011;68269;52.514;5.722;2024-02-21T06:17:08;6.40;;;2.00;;
78885;SDS011;68269;52.514;5.722;2024-02-21T06:19:39;9.38;;;2.75;;
78885;SDS011;68269;52.514;5.722;2024-02-21T06:22:12;12.27;;;2.55;;
78885;SDS011;68269;52.514;5.722;2024-02-21T06:24:41;7.93;;;2.35;;
78885;SDS011;68269;52.514;5.722;2024-02-21T06:27:11;12.20;;;3.33;;
78885;SDS011;68269;52.514;5.722;2024-02-21T06:29:41;10.18;;;2.85;;
78885;SDS011;68269;52.514;5.722;2024-02-21T06:32:11;13.27;;;3.63;;
78885;SDS011;68269;52.514;5.722;2024-02-21T06:34:40;10.32;;;2.55;;
78885;SDS011;68269;52.514;5.722;2024-02-21T06:37:12;9.65;;;2.08;;
78885;SDS011;68269;52.514;5.722;2024-02-21T06:39:41;10.73;;;3.22;;
78885;SDS011;68269;52.514;5.722;2024-02-21T06:42:10;7.53;;;2.45;;
78885;SDS011;68269;52.514;5.722;2024-02-21T06:44:40;13.60;;;2.83;;
78885;SDS011;68269;52.514;5.722;2024-02-21T06:47:09;10.38;;;2.75;;
78885;SDS011;68269;52.514;5.722;2024-02-21T06:49:38;9.50;;;3.92;;
78885;SDS011;68269;52.514;5.722;2024-02-21T06:52:07;9.27;;;2.53;;
78885;SDS011;68269;52.514;5.722;2024-02-21T06:54:39;15.13;;;3.47;;
78885;SDS011;68269;52.514;5.722;2024-02-21T06:57:09;21.98;;;3.17;;
78885;SDS011;68269;52.514;5.722;2024-02-21T06:59:38;8.60;;;2.83;;
78885;SDS011;68269;52.514;5.722;2024-02-21T07:02:07;13.18;;;3.72;;
78885;SDS011;68269;52.514;5.722;2024-02-21T07:04:36;11.43;;;3.10;;
78885;SDS011;68269;52.514;5.722;2024-02-21T07:07:06;7.53;;;2.78;;
78885;SDS011;68269;52.514;5.722;2024-02-21T07:09:35;12.23;;;3.35;;
78885;SDS011;68269;52.514;5.722;2024-02-21T07:12:07;12.88;;;3.15;;
78885;SDS011;68269;52.514;5.722;2024-02-21T07:14:36;8.52;;;2.10;;
78885;SDS011;68269;52.514;5.722;2024-02-21T07:17:06;11.02;;;3.47;;
78885;SDS011;68269;52.514;5.722;2024-02-21T07:19:35;10.75;;;2.83;;
78885;SDS011;68269;52.514;5.722;2024-02-21T07:22:04;10.32;;;2.80;;
78885;SDS011;68269;52.514;5.722;2024-02-21T07:24:34;10.45;;;2.38;;
78885;SDS011;68269;52.514;5.722;2024-02-21T07:27:04;9.20;;;2.60;;
78885;SDS011;68269;52.514;5.722;2024-02-21T07:29:36;9.70;;;2.55;;
78885;SDS011;68269;52.514;5.722;2024-02-21T07:32:05;11.52;;;2.67;;
78885;SDS011;68269;52.514;5.722;2024-02-21T07:34:35;9.82;;;2.78;;
78885;SDS011;68269;52.514;5.722;2024-02-21T07:37:04;11.85;;;3.08;;
78885;SDS011;68269;52.514;5.722;2024-02-21T07:39:35;13.48;;;3.35;;
78885;SDS011;68269;52.514;5.722;2024-02-21T07:42:07;13.48;;;3.72;;
78885;SDS011;68269;52.514;5.722;2024-02-21T07:44:36;8.20;;;2.42;;
78885;SDS011;68269;52.514;5.722;2024-02-21T07:47:05;13.95;;;4.13;;
78885;SDS011;68269;52.514;5.722;2024-02-21T07:49:40;10.70;;;2.75;;
78885;SDS011;68269;52.514;5.722;2024-02-21T07:52:10;9.27;;;3.03;;
78885;SDS011;68269;52.514;5.722;2024-02-21T07:54:40;9.75;;;3.13;;
78885;SDS011;68269;52.514;5.722;2024-02-21T07:57:12;13.02;;;3.78;;
78885;SDS011;68269;52.514;5.722;2024-02-21T07:59:41;9.15;;;3.13;;
78885;SDS011;68269;52.514;5.722;2024-02-21T08:02:13;15.55;;;4.00;;
78885;SDS011;68269;52.514;5.722;2024-02-21T08:04:42;14.02;;;4.07;;
78885;SDS011;68269;52.514;5.722;2024-02-21T08:07:11;11.45;;;3.85;;
78885;SDS011;68269;52.514;5.722;2024-02-21T08:09:39;11.82;;;3.60;;
78885;SDS011;68269;52.514;5.722;2024-02-21T08:12:08;12.30;;;3.92;;
78885;SDS011;68269;52.514;5.722;2024-02-21T08:14:40;12.75;;;3.90;;
78885;SDS011;68269;52.514;5.722;2024-02-21T08:17:10;15.15;;;3.95;;
78885;SDS011;68269;52.514;5.722;2024-02-21T08:19:39;11.25;;;4.13;;
78885;SDS011;68269;52.514;5.722;2024-02-21T08:22:08;10.75;;;3.95;;
78885;SDS011;68269;52.514;5.722;2024-02-21T08:24:38;9.80;;;3.00;;
78885;SDS011;68269;52.514;5.722;2024-02-21T08:27:07;11.00;;;3.17;;
78885;SDS011;68269;52.514;5.722;2024-02-21T08:29:39;14.65;;;4.40;;
78885;SDS011;68269;52.514;5.722;2024-02-21T08:32:08;9.05;;;3.08;;
78885;SDS011;68269;52.514;5.722;2024-02-21T08:34:38;16.48;;;4.13;;
78885;SDS011;68269;52.514;5.722;2024-02-21T08:37:07;10.30;;;3.70;;
78885;SDS011;68269;52.514;5.722;2024-02-21T08:39:36;14.65;;;4.35;;
78885;SDS011;68269;52.514;5.722;2024-02-21T08:42:06;10.95;;;3.70;;
78885;SDS011;68269;52.514;5.722;2024-02-21T08:44:35;16.17;;;4.60;;
78885;SDS011;68269;52.514;5.722;2024-02-21T08:47:08;14.73;;;4.68;;
78885;SDS011;68269;52.514;5.722;2024-02-21T08:49:38;11.32;;;3.47;;
78885;SDS011;68269;52.514;5.722;2024-02-21T08:52:07;11.32;;;3.58;;
78885;SDS011;68269;52.514;5.722;2024-02-21T08:54:37;17.40;;;4.85;;
78885;SDS011;68269;52.514;5.722;2024-02-21T08:57:06;15.23;;;5.30;;
78885;SDS011;68269;52.514;5.722;2024-02-21T08:59:35;12.35;;;4.05;;
78885;SDS011;68269;52.514;5.722;2024-02-21T09:02:07;12.45;;;3.10;;
78885;SDS011;68269;52.514;5.722;2024-02-21T09:04:37;13.30;;;3.83;;
78885;SDS011;68269;52.514;5.722;2024-02-21T09:07:06;14.13;;;5.88;;
78885;SDS011;68269;52.514;5.722;2024-02-21T09:09:35;16.13;;;5.10;;
78885;SDS011;68269;52.514;5.722;2024-02-21T09:12:05;15.70;;;5.13;;
78885;SDS011;68269;52.514;5.722;2024-02-21T09:14:36;15.40;;;5.00;;
78885;SDS011;68269;52.514;5.722;2024-02-21T09:17:08;11.57;;;4.22;;
78885;SDS011;68269;52.514;5.722;2024-02-21T09:19:38;11.85;;;4.65;;
78885;SDS011;68269;52.514;5.722;2024-02-21T09:22:07;15.90;;;4.55;;
78885;SDS011;68269;52.514;5.722;2024-02-21T09:24:36;13.35;;;3.50;;
78885;SDS011;68269;52.514;5.722;2024-02-21T09:27:06;14.93;;;4.20;;
78885;SDS011;68269;52.514;5.722;2024-02-21T09:29:35;13.13;;;4.32;;
78885;SDS011;68269;52.514;5.722;2024-02-21T09:32:07;13.27;;;4.32;;
78885;SDS011;68269;52.514;5.722;2024-02-21T09:34:38;10.15;;;2.92;;
78885;SDS011;68269;52.514;5.722;2024-02-21T09:37:07;13.88;;;4.90;;
78885;SDS011;68269;52.514;5.722;2024-02-21T09:39:36;12.00;;;4.22;;
78885;SDS011;68269;52.514;5.722;2024-02-21T09:42:06;14.18;;;3.95;;
78885;SDS011;68269;52.514;5.722;2024-02-21T09:44:38;13.60;;;4.88;;
78885;SDS011;68269;52.514;5.722;2024-02-21T09:47:12;9.10;;;2.97;;
78885;SDS011;68269;52.514;5.722;2024-02-21T09:49:47;10.07;;;2.88;;
78885;SDS011;68269;52.514;5.722;2024-02-21T09:52:17;13.85;;;3.30;;
78885;SDS011;68269;52.514;5.722;2024-02-21T09:54:49;13.63;;;3.22;;
78885;SDS011;68269;52.514;5.722;2024-02-21T09:57:18;11.60;;;3.13;;
78885;SDS011;68269;52.514;5.722;2024-02-21T09:59:51;10.98;;;2.83;;
78885;SDS011;68269;52.514;5.722;2024-02-21T10:02:24;12.75;;;4.10;;
78885;SDS011;68269;52.514;5.722;2024-02-21T10:04:54;10.70;;;3.25;;
78885;SDS011;68269;52.514;5.722;2024-02-21T10:07:24;14.65;;;2.70;;
78885;SDS011;68269;52.514;5.722;2024-02-21T10:10:00;12.85;;;3.58;;
78885;SDS011;68269;52.514;5.722;2024-02-21T10:12:29;11.63;;;3.58;;
78885;SDS011;68269;52.514;5.722;2024-02-21T10:15:02;13.20;;;3.17;;
78885;SDS011;68269;52.514;5.722;2024-02-21T10:17:34;10.65;;;3.65;;
78885;SDS011;68269;52.514;5.722;2024-02-21T10:20:07;12.25;;;3.22;;
78885;SDS011;68269;52.514;5.722;2024-02-21T10:25:07;11.65;;;3.40;;
78885;SDS011;68269;52.514;5.722;2024-02-21T10:27:36;12.25;;;2.83;;
78885;SDS011;68269;52.514;5.722;2024-02-21T10:30:07;10.73;;;3.13;;
78885;SDS011;68269;52.514;5.722;2024-02-21T10:32:51;9.13;;;2.83;;
78885;SDS011;68269;52.514;5.722;2024-02-21T10:35:27;8.23;;;1.90;;
78885;SDS011;68269;52.514;5.722;2024-02-21T10:37:57;8.80;;;2.95;;
78885;SDS011;68269;52.514;5.722;2024-02-21T10:40:28;12.60;;;3.03;;
78885;SDS011;68269;52.514;5.722;2024-02-21T10:42:58;12.00;;;2.95;;
78885;SDS011;68269;52.514;5.722;2024-02-21T10:45:30;10.23;;;2.95;;
78885;SDS011;68269;52.514;5.722;2024-02-21T10:48:06;8.43;;;2.17;;
78885;SDS011;68269;52.514;5.722;2024-02-21T10:50:43;8.85;;;2.50;;
78885;SDS011;68269;52.514;5.722;2024-02-21T10:53:24;10.50;;;3.17;;
78885;SDS011;68269;52.514;5.722;2024-02-21T10:56:06;9.48;;;2.63;;
78885;SDS011;68269;52.514;5.722;2024-02-21T10:58:43;10.60;;;2.30;;
78885;SDS011;68269;52.514;5.722;2024-02-21T11:01:14;8.32;;;2.80;;
78885;SDS011;68269;52.514;5.722;2024-02-21T11:03:46;7.10;;;1.85;;
78885;SDS011;68269;52.514;5.722;2024-02-21T11:06:18;8.18;;;2.42;;
78885;SDS011;68269;52.514;5.722;2024-02-21T11:08:58;10.40;;;2.22;;
78885;SDS011;68269;52.514;5.722;2024-02-21T11:11:29;9.18;;;2.22;;
78885;SDS011;68269;52.514;5.722;2024-02-21T11:14:06;9.88;;;2.10;;
78885;SDS011;68269;52.514;5.722;2024-02-21T11:16:37;6.95;;;1.30;;
78885;SDS011;68269;52.514;5.722;2024-02-21T11:19:19;6.40;;;1.67;;
78885;SDS011;68269;52.514;5.722;2024-02-21T11:21:49;7.85;;;1.83;;
78885;SDS011;68269;52.514;5.722;2024-02-21T11:24:25;7.47;;;1.85;;
78885;SDS011;68269;52.514;5.722;2024-02-21T11:26:56;5.32;;;1.42;;
78885;SDS011;68269;52.514;5.722;2024-02-21T11:29:39;7.25;;;2.08;;
78885;SDS011;68269;52.514;5.722;2024-02-21T11:32:09;5.68;;;1.38;;
78885;SDS011;68269;52.514;5.722;2024-02-21T11:34:42;7.75;;;1.92;;
78885;SDS011;68269;52.514;5.722;2024-02-21T11:37:24;6.95;;;2.17;;
78885;SDS011;68269;52.514;5.722;2024-02-21T11:39:54;6.90;;;1.60;;
78885;SDS011;68269;52.514;5.722;2024-02-21T11:42:24;6.30;;;1.90;;
78885;SDS011;68269;52.514;5.722;2024-02-21T11:44:55;5.75;;;1.60;;
78885;SDS011;68269;52.514;5.722;2024-02-21T11:47:25;5.93;;;1.50;;
78885;SDS011;68269;52.514;5.722;2024-02-21T11:49:59;7.03;;;1.50;;
78885;SDS011;68269;52.514;5.722;2024-02-21T11:52:29;7.88;;;2.30;;
78885;SDS011;68269;52.514;5.722;2024-02-21T11:54:58;7.07;;;2.25;;
78885;SDS011;68269;52.514;5.722;2024-02-21T11:57:30;7.18;;;1.45;;
78885;SDS011;68269;52.514;5.722;2024-02-21T12:00:10;6.35;;;1.70;;
78885;SDS011;68269;52.514;5.722;2024-02-21T12:02:40;5.63;;;1.17;;
78885;SDS011;68269;52.514;5.722;2024-02-21T12:05:13;8.38;;;2.40;;
78885;SDS011;68269;52.514;5.722;2024-02-21T12:07:43;6.97;;;1.92;;
78885;SDS011;68269;52.514;5.722;2024-02-21T12:10:13;6.70;;;1.95;;
78885;SDS011;68269;52.514;5.722;2024-02-21T12:12:42;5.43;;;1.92;;
78885;SDS011;68269;52.514;5.722;2024-02-21T12:15:11;6.55;;;1.55;;
78885;SDS011;68269;52.514;5.722;2024-02-21T12:17:41;7.13;;;1.98;;
78885;SDS011;68269;52.514;5.722;2024-02-21T12:20:14;7.10;;;1.65;;
78885;SDS011;68269;52.514;5.722;2024-02-21T12:22:43;6.93;;;1.58;;
78885;SDS011;68269;52.514;5.722;2024-02-21T12:25:15;6.57;;;1.90;;
78885;SDS011;68269;52.514;5.722;2024-02-21T12:27:48;6.97;;;1.55;;
78885;SDS011;68269;52.514;5.722;2024-02-21T12:30:17;8.52;;;2.38;;
78885;SDS011;68269;52.514;5.722;2024-02-21T12:32:47;7.43;;;1.77;;
78885;SDS011;68269;52.514;5.722;2024-02-21T12:35:19;5.82;;;1.52;;
78885;SDS011;68269;52.514;5.722;2024-02-21T12:37:52;6.90;;;1.75;;
78885;SDS011;68269;52.514;5.722;2024-02-21T12:40:21;4.00;;;1.25;;
78885;SDS011;68269;52.514;5.722;2024-02-21T12:42:50;7.13;;;1.65;;
78885;SDS011;68269;52.514;5.722;2024-02-21T12:45:19;5.70;;;1.65;;
78885;SDS011;68269;52.514;5.722;2024-02-21T12:47:49;7.38;;;1.45;;
78885;SDS011;68269;52.514;5.722;2024-02-21T12:50:21;11.45;;;2.70;;
78885;SDS011;68269;52.514;5.722;2024-02-21T12:52:50;5.47;;;1.35;;
78885;SDS011;68269;52.514;5.722;2024-02-21T12:55:20;8.07;;;2.05;;
78885;SDS011;68269;52.514;5.722;2024-02-21T12:57:49;7.95;;;1.75;;
78885;SDS011;68269;52.514;5.722;2024-02-21T13:00:18;6.93;;;2.00;;
78885;SDS011;68269;52.514;5.722;2024-02-21T13:02:52;6.32;;;1.92;;
78885;SDS011;68269;52.514;5.722;2024-02-21T13:05:24;4.90;;;1.33;;
78885;SDS011;68269;52.514;5.722;2024-02-21T13:07:53;8.38;;;2.45;;
78885;SDS011;68269;52.514;5.722;2024-02-21T13:10:22;6.00;;;1.90;;
78885;SDS011;68269;52.514;5.722;2024-02-21T13:12:52;5.75;;;1.60;;
78885;SDS011;68269;52.514;5.722;2024-02-21T13:15:21;7.28;;;2.13;;
78885;SDS011;68269;52.514;5.722;2024-02-21T13:17:50;6.32;;;1.75;;
78885;SDS011;68269;52.514;5.722;2024-02-21T13:20:19;9.60;;;2.25;;
78885;SDS011;68269;52.514;5.722;2024-02-21T13:22:52;6.55;;;1.73;;
78885;SDS011;68269;52.514;5.722;2024-02-21T13:25:21;7.40;;;1.80;;
78885;SDS011;68269;52.514;5.722;2024-02-21T13:27:50;7.18;;;2.13;;
78885;SDS011;68269;52.514;5.722;2024-02-21T13:30:19;7.32;;;1.67;;
78885;SDS011;68269;52.514;5.722;2024-02-21T13:32:50;5.88;;;1.70;;
78885;SDS011;68269;52.514;5.722;2024-02-21T13:35:20;6.82;;;1.60;;
78885;SDS011;68269;52.514;5.722;2024-02-21T13:37:52;6.97;;;1.67;;
78885;SDS011;68269;52.514;5.722;2024-02-21T13:40:21;6.22;;;1.83;;
78885;SDS011;68269;52.514;5.722;2024-02-21T13:42:51;6.00;;;1.85;;
78885;SDS011;68269;52.514;5.722;2024-02-21T13:45:20;5.85;;;1.58;;
78885;SDS011;68269;52.514;5.722;2024-02-21T13:47:50;9.00;;;2.17;;
78885;SDS011;68269;52.514;5.722;2024-02-21T13:50:19;4.28;;;1.38;;
78885;SDS011;68269;52.514;5.722;2024-02-21T13:52:57;5.68;;;1.35;;
78885;SDS011;68269;52.514;5.722;2024-02-21T13:55:27;6.65;;;1.88;;
78885;SDS011;68269;52.514;5.722;2024-02-21T13:57:56;5.50;;;1.67;;
78885;SDS011;68269;52.514;5.722;2024-02-21T14:00:25;7.63;;;1.92;;
78885;SDS011;68269;52.514;5.722;2024-02-21T14:02:54;7.15;;;1.92;;
78885;SDS011;68269;52.514;5.722;2024-02-21T14:05:24;8.60;;;2.33;;
78885;SDS011;68269;52.514;5.722;2024-02-21T14:07:56;7.97;;;2.20;;
78885;SDS011;68269;52.514;5.722;2024-02-21T14:10:26;5.70;;;1.98;;
78885;SDS011;68269;52.514;5.722;2024-02-21T14:12:55;6.43;;;1.65;;
78885;SDS011;68269;52.514;5.722;2024-02-21T14:15:24;6.60;;;2.00;;
78885;SDS011;68269;52.514;5.722;2024-02-21T14:17:54;4.57;;;1.42;;
78885;SDS011;68269;52.514;5.722;2024-02-21T14:20:23;7.88;;;1.70;;
78885;SDS011;68269;52.514;5.722;2024-02-21T14:22:52;6.32;;;2.03;;
78885;SDS011;68269;52.514;5.722;2024-02-21T14:25:24;6.55;;;1.90;;
78885;SDS011;68269;52.514;5.722;2024-02-21T14:27:53;4.93;;;1.38;;
78885;SDS011;68269;52.514;5.722;2024-02-21T14:30:23;5.13;;;1.65;;
78885;SDS011;68269;52.514;5.722;2024-02-21T14:32:52;6.60;;;1.75;;
78885;SDS011;68269;52.514;5.722;2024-02-21T14:35:21;5.43;;;1.23;;
78885;SDS011;68269;52.514;5.722;2024-02-21T14:37:51;4.75;;;1.38;;
78885;SDS011;68269;52.514;5.722;2024-02-21T14:40:25;6.75;;;1.88;;
78885;SDS011;68269;52.514;5.722;2024-02-21T14:42:55;5.18;;;1.55;;
78885;SDS011;68269;52.514;5.722;2024-02-21T14:45:26;6.53;;;1.50;;
78885;SDS011;68269;52.514;5.722;2024-02-21T14:47:55;4.63;;;1.30;;
78885;SDS011;68269;52.514;5.722;2024-02-21T14:50:25;6.35;;;1.58;;
78885;SDS011;68269;52.514;5.722;2024-02-21T14:52:54;5.47;;;1.90;;
78885;SDS011;68269;52.514;5.722;2024-02-21T14:55:26;8.35;;;1.83;;
78885;SDS011;68269;52.514;5.722;2024-02-21T14:57:55;10.45;;;1.95;;
78885;SDS011;68269;52.514;5.722;2024-02-21T15:00:25;5.32;;;1.38;;
78885;SDS011;68269;52.514;5.722;2024-02-21T15:02:55;6.35;;;1.52;;
78885;SDS011;68269;52.514;5.722;2024-02-21T15:05:25;6.00;;;1.50;;